MV Moseldijk — PBWK — position and weather

sailwx.info

Track history (hours):
 
Tides and Currents Weather Stations Pressure Air Temp Water Temp Dewpoint Dewpoint Depression Visibility Wind Speed Wind Dir Waves Ship Positions

MV Moseldijk

Last reported at 2014-Sep-03 06:28 UTC. Time now 2014-Sep-03 07:09 UTC.
Position N 52°28' E 004°07'.

Length 90 m; draft 3.9 m.

Type: Cargo ship. MMSI: 246644000.

Date/timePositionNaut miles runAvg speedWind from/ knotsBaromVisibWave heightAir tempDewpointWater temp
2014-Sep-03 06:28N 52°28' E 004°07'0 0.0
2014-Sep-03 05:25N 52°28' E 004°07'0 0.0
2014-Sep-03 03:25N 52°28' E 004°07'0 0.0
2014-Sep-03 02:31N 52°28' E 004°07'0 0.0
2014-Sep-03 01:22N 52°28' E 004°07'0 0.0
2014-Sep-03 00:19N 52°28' E 004°07'0 0.0
2014-Sep-02 23:28N 52°28' E 004°07'0 0.1
2014-Sep-02 22:25N 52°28' E 004°07'0 0.0
2014-Sep-02 21:31N 52°28' E 004°07'0 0.0
2014-Sep-02 20:31N 52°28' E 004°07'0 0.0
2014-Sep-02 19:31N 52°28' E 004°07'0 0.1
2014-Sep-02 18:28N 52°28' E 004°07'0 0.1
2014-Sep-02 17:31N 52°28' E 004°07'0 0.0
2014-Sep-02 16:33N 52°28' E 004°07'6 6.4
2014-Sep-02 15:34N 52°34' E 004°06'1411.8
2014-Sep-02 14:23N 52°47' E 003°59'2511.1
2014-Sep-02 12:08N 53°09' E 004°21'1710.4
2014-Sep-02 10:31N 53°23' E 004°34'9 9.2
2014-Sep-02 09:33N 53°29' E 004°45'1010.0
2014-Sep-02 08:33N 53°33' E 005°01'1111.0
2014-Sep-02 07:33N 53°37' E 005°18'1211.7
2014-Sep-02 06:33N 53°41' E 005°37'1212.0
2014-Sep-02 05:33N 53°45' E 005°56'6410.4
2014-Sep-01 23:26N 53°57' E 007°42'8 9.4
2014-Sep-01 22:33N 53°52' E 007°53'1111.2
2014-Sep-01 21:33N 53°46' E 008°10'1313.4
2014-Sep-01 20:33N 53°38' E 008°27'1110.8
2014-Sep-01 19:34N 53°27' E 008°29'7 6.7
2014-Sep-01 18:30N 53°20' E 008°29'0 0.0
2014-Sep-01 17:33N 53°20' E 008°29'0 0.0
2014-Sep-01 16:33N 53°20' E 008°29'0 0.0
2014-Sep-01 15:33N 53°20' E 008°29'0 0.0
2014-Sep-01 12:24N 53°20' E 008°29'0 0.0
2014-Sep-01 04:06N 53°20' E 008°29'0 0.0
2014-Sep-01 02:18N 53°20' E 008°29'0 0.0
2014-Sep-01 01:33N 53°20' E 008°29'0 0.0
2014-Aug-31 23:15N 53°20' E 008°29'0 0.0
2014-Aug-31 22:30N 53°20' E 008°29'0 0.0
2014-Aug-31 21:03N 53°20' E 008°29'0 0.0
2014-Aug-31 20:33N 53°20' E 008°29'0 0.0
2014-Aug-31 19:30N 53°20' E 008°29'0 0.0
2014-Aug-31 13:32N 53°20' E 008°29'1111.2
2014-Aug-31 12:33N 53°31' E 008°32'1111.5
2014-Aug-31 11:33N 53°41' E 008°22'1413.8
2014-Aug-31 10:33N 53°50' E 008°05'20 9.8
2014-Aug-31 08:33N 53°60' E 007°36'8 7.8
2014-Aug-31 07:33N 54°07' E 007°29'6 6.6
2014-Aug-31 06:33N 54°09' E 007°19'7 7.4
2014-Aug-31 05:33N 54°09' E 007°06'228 7.3
2014-Aug-29 22:09N 54°20' E 000°36'5 7.7
2014-Aug-29 21:33N 54°22' E 000°29'8 7.9
2014-Aug-29 20:33N 54°25' E 000°16'8 8.2
2014-Aug-29 19:33N 54°27' E 000°03'8 8.2
2014-Aug-29 18:33N 54°30' W 000°11'8 8.3
2014-Aug-29 17:33N 54°33' W 000°24'9 8.9
2014-Aug-29 16:33N 54°36' W 000°39'9 8.9
2014-Aug-29 15:33N 54°39' W 000°53'9 8.8
2014-Aug-29 14:33N 54°39' W 001°09'5 4.8
2014-Aug-29 13:32N 54°35' W 001°14'0 0.0
2014-Aug-29 12:23N 54°35' W 001°14'0 0.0
2014-Aug-29 11:26N 54°35' W 001°14'0 0.0
2014-Aug-29 10:26N 54°35' W 001°14'0 0.0
2014-Aug-29 09:26N 54°35' W 001°14'0 0.0
2014-Aug-29 07:29N 54°35' W 001°14'0 0.0
2014-Aug-29 06:26N 54°35' W 001°14'0 0.0
2014-Aug-29 05:25N 54°35' W 001°14'0 0.0
2014-Aug-28 17:23N 54°35' W 001°14'0 0.0
2014-Aug-28 16:29N 54°35' W 001°14'0 0.0
2014-Aug-28 15:26N 54°35' W 001°14'0 0.0
2014-Aug-28 14:29N 54°35' W 001°14'0 0.0
2014-Aug-28 13:29N 54°35' W 001°14'0 0.0
2014-Aug-28 12:29N 54°35' W 001°14'0 0.0
2014-Aug-28 11:32N 54°35' W 001°14'0 0.0
2014-Aug-28 10:20N 54°35' W 001°14'0 0.0
2014-Aug-28 09:32N 54°35' W 001°14'0 0.0
2014-Aug-28 08:23N 54°35' W 001°14'0 0.0
2014-Aug-28 07:23N 54°35' W 001°14'0 0.0
2014-Aug-28 06:23N 54°35' W 001°14'2 0.2
2014-Aug-27 16:30N 54°36' W 001°11'7 6.2
2014-Aug-27 15:25N 54°41' W 001°04'0 0.0
2014-Aug-27 14:25N 54°41' W 001°04'0 0.0
2014-Aug-27 13:28N 54°41' W 001°04'0 0.0
2014-Aug-27 12:28N 54°41' W 001°04'0 0.0
2014-Aug-27 10:31N 54°41' W 001°04'0 0.0
2014-Aug-27 08:31N 54°41' W 001°04'0 0.0
2014-Aug-27 07:31N 54°41' W 001°04'0 0.0
2014-Aug-27 06:19N 54°41' W 001°04'0 0.0
2014-Aug-27 05:16N 54°41' W 001°04'0 0.0
2014-Aug-27 04:31N 54°41' W 001°04'0 0.0
2014-Aug-27 03:13N 54°41' W 001°04'0 0.0
2014-Aug-27 02:31N 54°41' W 001°04'0 0.0
2014-Aug-27 01:31N 54°41' W 001°04'0 0.0
2014-Aug-27 00:31N 54°41' W 001°04'0 0.0
2014-Aug-26 23:31N 54°41' W 001°04'0 0.0
2014-Aug-26 22:31N 54°41' W 001°04'0 0.0
2014-Aug-26 21:33N 54°41' W 001°04'6 5.5
2014-Aug-26 20:32N 54°47' W 001°07'1010.3
2014-Aug-26 19:34N 54°56' W 001°13'16 0.8
2014-Aug-26 00:33N 55°08' W 001°31'0 0.0
2014-Aug-25 16:18N 55°08' W 001°31'0 0.0
2014-Aug-25 14:24N 55°08' W 001°31'0 0.0
2014-Aug-25 13:30N 55°08' W 001°31'0 0.0
2014-Aug-25 12:27N 55°08' W 001°31'0 0.0
2014-Aug-25 11:08N 55°08' W 001°31'0 0.0
2014-Aug-25 10:32N 55°08' W 001°31'0 0.0
2014-Aug-25 09:33N 55°08' W 001°31'0 0.0
2014-Aug-25 08:32N 55°08' W 001°31'0 0.0
2014-Aug-25 07:27N 55°08' W 001°31'0 0.0
2014-Aug-25 06:33N 55°08' W 001°31'0 0.0
2014-Aug-25 05:33N 55°08' W 001°31'0 0.0
2014-Aug-25 04:33N 55°08' W 001°31'0 0.0
2014-Aug-25 03:26N 55°08' W 001°31'0 0.0
2014-Aug-25 02:23N 55°08' W 001°31'0 0.0
2014-Aug-25 00:27N 55°08' W 001°31'0 0.0
2014-Aug-24 23:32N 55°08' W 001°31'4 0.2
2014-Aug-24 06:32N 55°06' W 001°27'  
Track history (hours):
 
Tides and Currents Weather Stations Pressure Air Temp Water Temp Dewpoint Dewpoint Depression Visibility Wind Speed Wind Dir Waves Ship Positions

MV Moseldijk

Last reported at 2014-Sep-03 06:28 UTC. Time now 2014-Sep-03 07:09 UTC.
Position N 52°28' E 004°07'.

Length 90 m; draft 3.9 m.

Type: Cargo ship. MMSI: 246644000.

Date/timePositionNaut miles runAvg speedWind from/ knotsBaromVisibWave heightAir tempDewpointWater temp
2014-Sep-03 06:28N 52°28' E 004°07'0 0.0
2014-Sep-03 05:25N 52°28' E 004°07'0 0.0
2014-Sep-03 03:25N 52°28' E 004°07'0 0.0
2014-Sep-03 02:31N 52°28' E 004°07'0 0.0
2014-Sep-03 01:22N 52°28' E 004°07'0 0.0
2014-Sep-03 00:19N 52°28' E 004°07'0 0.0
2014-Sep-02 23:28N 52°28' E 004°07'0 0.1
2014-Sep-02 22:25N 52°28' E 004°07'0 0.0
2014-Sep-02 21:31N 52°28' E 004°07'0 0.0
2014-Sep-02 20:31N 52°28' E 004°07'0 0.0
2014-Sep-02 19:31N 52°28' E 004°07'0 0.1
2014-Sep-02 18:28N 52°28' E 004°07'0 0.1
2014-Sep-02 17:31N 52°28' E 004°07'0 0.0
2014-Sep-02 16:33N 52°28' E 004°07'6 6.4
2014-Sep-02 15:34N 52°34' E 004°06'1411.8
2014-Sep-02 14:23N 52°47' E 003°59'2511.1
2014-Sep-02 12:08N 53°09' E 004°21'1710.4
2014-Sep-02 10:31N 53°23' E 004°34'9 9.2
2014-Sep-02 09:33N 53°29' E 004°45'1010.0
2014-Sep-02 08:33N 53°33' E 005°01'1111.0
2014-Sep-02 07:33N 53°37' E 005°18'1211.7
2014-Sep-02 06:33N 53°41' E 005°37'1212.0
2014-Sep-02 05:33N 53°45' E 005°56'6410.4
2014-Sep-01 23:26N 53°57' E 007°42'8 9.4
2014-Sep-01 22:33N 53°52' E 007°53'1111.2
2014-Sep-01 21:33N 53°46' E 008°10'1313.4
2014-Sep-01 20:33N 53°38' E 008°27'1110.8
2014-Sep-01 19:34N 53°27' E 008°29'7 6.7
2014-Sep-01 18:30N 53°20' E 008°29'0 0.0
2014-Sep-01 17:33N 53°20' E 008°29'0 0.0
2014-Sep-01 16:33N 53°20' E 008°29'0 0.0
2014-Sep-01 15:33N 53°20' E 008°29'0 0.0
2014-Sep-01 12:24N 53°20' E 008°29'0 0.0
2014-Sep-01 04:06N 53°20' E 008°29'0 0.0
2014-Sep-01 02:18N 53°20' E 008°29'0 0.0
2014-Sep-01 01:33N 53°20' E 008°29'0 0.0
2014-Aug-31 23:15N 53°20' E 008°29'0 0.0
2014-Aug-31 22:30N 53°20' E 008°29'0 0.0
2014-Aug-31 21:03N 53°20' E 008°29'0 0.0
2014-Aug-31 20:33N 53°20' E 008°29'0 0.0
2014-Aug-31 19:30N 53°20' E 008°29'0 0.0
2014-Aug-31 13:32N 53°20' E 008°29'1111.2
2014-Aug-31 12:33N 53°31' E 008°32'1111.5
2014-Aug-31 11:33N 53°41' E 008°22'1413.8
2014-Aug-31 10:33N 53°50' E 008°05'20 9.8
2014-Aug-31 08:33N 53°60' E 007°36'8 7.8
2014-Aug-31 07:33N 54°07' E 007°29'6 6.6
2014-Aug-31 06:33N 54°09' E 007°19'7 7.4
2014-Aug-31 05:33N 54°09' E 007°06'228 7.3
2014-Aug-29 22:09N 54°20' E 000°36'5 7.7
2014-Aug-29 21:33N 54°22' E 000°29'8 7.9
2014-Aug-29 20:33N 54°25' E 000°16'8 8.2
2014-Aug-29 19:33N 54°27' E 000°03'8 8.2
2014-Aug-29 18:33N 54°30' W 000°11'8 8.3
2014-Aug-29 17:33N 54°33' W 000°24'9 8.9
2014-Aug-29 16:33N 54°36' W 000°39'9 8.9
2014-Aug-29 15:33N 54°39' W 000°53'9 8.8
2014-Aug-29 14:33N 54°39' W 001°09'5 4.8
2014-Aug-29 13:32N 54°35' W 001°14'0 0.0
2014-Aug-29 12:23N 54°35' W 001°14'0 0.0
2014-Aug-29 11:26N 54°35' W 001°14'0 0.0
2014-Aug-29 10:26N 54°35' W 001°14'0 0.0
2014-Aug-29 09:26N 54°35' W 001°14'0 0.0
2014-Aug-29 07:29N 54°35' W 001°14'0 0.0
2014-Aug-29 06:26N 54°35' W 001°14'0 0.0
2014-Aug-29 05:25N 54°35' W 001°14'0 0.0
2014-Aug-28 17:23N 54°35' W 001°14'0 0.0
2014-Aug-28 16:29N 54°35' W 001°14'0 0.0
2014-Aug-28 15:26N 54°35' W 001°14'0 0.0
2014-Aug-28 14:29N 54°35' W 001°14'0 0.0
2014-Aug-28 13:29N 54°35' W 001°14'0 0.0
2014-Aug-28 12:29N 54°35' W 001°14'0 0.0
2014-Aug-28 11:32N 54°35' W 001°14'0 0.0
2014-Aug-28 10:20N 54°35' W 001°14'0 0.0
2014-Aug-28 09:32N 54°35' W 001°14'0 0.0
2014-Aug-28 08:23N 54°35' W 001°14'0 0.0
2014-Aug-28 07:23N 54°35' W 001°14'0 0.0
2014-Aug-28 06:23N 54°35' W 001°14'2 0.2
2014-Aug-27 16:30N 54°36' W 001°11'7 6.2
2014-Aug-27 15:25N 54°41' W 001°04'0 0.0
2014-Aug-27 14:25N 54°41' W 001°04'0 0.0
2014-Aug-27 13:28N 54°41' W 001°04'0 0.0
2014-Aug-27 12:28N 54°41' W 001°04'0 0.0
2014-Aug-27 10:31N 54°41' W 001°04'0 0.0
2014-Aug-27 08:31N 54°41' W 001°04'0 0.0
2014-Aug-27 07:31N 54°41' W 001°04'0 0.0
2014-Aug-27 06:19N 54°41' W 001°04'0 0.0
2014-Aug-27 05:16N 54°41' W 001°04'0 0.0
2014-Aug-27 04:31N 54°41' W 001°04'0 0.0
2014-Aug-27 03:13N 54°41' W 001°04'0 0.0
2014-Aug-27 02:31N 54°41' W 001°04'0 0.0
2014-Aug-27 01:31N 54°41' W 001°04'0 0.0
2014-Aug-27 00:31N 54°41' W 001°04'0 0.0
2014-Aug-26 23:31N 54°41' W 001°04'0 0.0
2014-Aug-26 22:31N 54°41' W 001°04'0 0.0
2014-Aug-26 21:33N 54°41' W 001°04'6 5.5
2014-Aug-26 20:32N 54°47' W 001°07'1010.3
2014-Aug-26 19:34N 54°56' W 001°13'16 0.8
2014-Aug-26 00:33N 55°08' W 001°31'0 0.0
2014-Aug-25 16:18N 55°08' W 001°31'0 0.0
2014-Aug-25 14:24N 55°08' W 001°31'0 0.0
2014-Aug-25 13:30N 55°08' W 001°31'0 0.0
2014-Aug-25 12:27N 55°08' W 001°31'0 0.0
2014-Aug-25 11:08N 55°08' W 001°31'0 0.0
2014-Aug-25 10:32N 55°08' W 001°31'0 0.0
2014-Aug-25 09:33N 55°08' W 001°31'0 0.0
2014-Aug-25 08:32N 55°08' W 001°31'0 0.0
2014-Aug-25 07:27N 55°08' W 001°31'0 0.0
2014-Aug-25 06:33N 55°08' W 001°31'0 0.0
2014-Aug-25 05:33N 55°08' W 001°31'0 0.0
2014-Aug-25 04:33N 55°08' W 001°31'0 0.0
2014-Aug-25 03:26N 55°08' W 001°31'0 0.0
2014-Aug-25 02:23N 55°08' W 001°31'0 0.0
2014-Aug-25 00:27N 55°08' W 001°31'0 0.0
2014-Aug-24 23:32N 55°08' W 001°31'4 0.2
2014-Aug-24 06:32N 55°06' W 001°27'  

Dump ship's entire track history